Time;durP1;ratioP1;P1;durP2;ratioP2;P2;SDS_P1;SDS_P2;PMS_P1;PMS_P2;Temp;Humidity;BMP_temperature;BMP_pressure;BME280_temperature;BME280_humidity;BME280_pressure;Samples;Min_cycle;Max_cycle;Signal;HPM_P1;HPM_P2
2022/01/13 00:02:17;;;;;;;;;38.75;32.50;;;;;5.06;76.61;103485.25;4957973;28;45392;-53
2022/01/13 00:04:43;;;;;;;;;26.00;22.75;;;;;5.05;76.28;103477.19;4976105;28;45355;-51
2022/01/13 00:07:10;;;;;;;;;40.50;32.75;;;;;4.99;76.52;103476.69;4958655;28;45543;-54
2022/01/13 00:09:36;;;;;;;;;36.20;28.20;;;;;4.85;76.46;103457.69;4975819;28;45442;-49
2022/01/13 00:12:02;;;;;;;;;42.50;27.00;;;;;5.04;76.95;103479.06;4921143;28;45625;-50
2022/01/13 00:19:49;;;;;;;;;33.75;29.25;;;;;5.11;76.26;103471.31;4957227;28;45896;-50
2022/01/13 00:24:46;;;;;;;;;31.60;27.60;;;;;5.08;76.81;103479.72;4956429;28;45404;-47
2022/01/13 00:27:13;;;;;;;;;29.60;29.60;;;;;5.04;76.42;103467.28;4957573;28;45249;-47
2022/01/13 00:29:41;;;;;;;;;33.80;28.80;;;;;5.04;76.41;103473.63;4956050;28;46935;-50
2022/01/13 00:32:08;;;;;;;;;36.40;30.40;;;;;5.08;76.70;103468.81;4958366;28;45380;-48
2022/01/13 00:34:33;;;;;;;;;40.00;32.20;;;;;5.06;76.85;103455.31;4976632;28;45432;-53
2022/01/13 00:36:59;;;;;;;;;28.00;25.25;;;;;5.14;76.78;103465.69;4977387;28;45364;-48
2022/01/13 00:39:25;;;;;;;;;29.25;24.00;;;;;4.94;76.89;103440.72;4978605;28;45465;-49
2022/01/13 00:41:50;;;;;;;;;30.25;24.00;;;;;5.08;76.25;103469.69;4979246;28;45551;-52
2022/01/13 00:44:19;;;;;;;;;30.50;28.50;;;;;5.05;76.98;103458.13;4975123;28;45369;-50
2022/01/13 00:46:48;;;;;;;;;32.60;24.20;;;;;5.13;77.03;103466.66;4976967;28;45480;-48
2022/01/13 00:49:14;;;;;;;;;18.40;13.40;;;;;5.09;76.56;103463.28;4976958;28;45736;-52
2022/01/13 00:51:39;;;;;;;;;25.00;20.25;;;;;4.88;76.97;103435.72;4976441;28;45449;-53
2022/01/13 00:54:07;;;;;;;;;29.25;26.75;;;;;5.06;76.47;103471.66;4977199;28;45440;-52
2022/01/13 00:56:33;;;;;;;;;25.40;23.00;;;;;5.08;77.13;103466.97;4976806;28;45430;-48
2022/01/13 00:59:03;;;;;;;;;36.25;28.25;;;;;5.09;76.30;103465.13;4975938;28;46058;-48
2022/01/13 01:01:29;;;;;;;;;37.00;24.60;;;;;4.86;76.40;103432.25;4975771;28;45445;-49
2022/01/13 01:03:54;;;;;;;;;23.25;21.25;;;;;5.05;76.53;103458.13;4976137;28;45486;-52
2022/01/13 01:06:20;;;;;;;;;29.50;23.50;;;;;5.07;76.13;103448.03;4976726;28;45343;-51
2022/01/13 01:08:46;;;;;;;;;26.00;20.80;;;;;4.89;77.13;103432.00;4975718;28;45741;-48
2022/01/13 01:11:11;;;;;;;;;24.50;20.00;;;;;4.43;75.85;103355.34;4976474;28;45229;-50
2022/01/13 01:13:38;;;;;;;;;27.00;23.75;;;;;5.09;77.08;103459.69;4953180;28;45580;-51
2022/01/13 01:16:07;;;;;;;;;29.80;25.60;;;;;4.95;76.73;103455.19;4996168;28;45434;-50
2022/01/13 01:18:53;;;;;;;;;24.40;18.00;;;;;5.00;76.68;103466.63;4994105;28;45486;-47
2022/01/13 01:29:25;;;;;;;;;29.60;18.80;;;;;4.84;77.50;103465.00;4995465;28;45881;-49
2022/01/13 01:31:54;;;;;;;;;24.40;20.20;;;;;4.91;77.17;103461.84;4995368;28;45471;-47
2022/01/13 01:37:01;;;;;;;;;33.80;20.00;;;;;4.95;77.56;103460.63;4975937;28;45429;-47
2022/01/13 01:39:27;;;;;;;;;26.25;22.75;;;;;5.01;76.61;103455.66;4975653;28;46387;-47
2022/01/13 01:41:54;;;;;;;;;20.75;20.25;;;;;5.01;77.61;103463.81;4975285;28;45332;-49
2022/01/13 01:44:27;;;;;;;;;23.00;20.00;;;;;4.94;77.11;103451.63;4976274;28;45320;-53
2022/01/13 01:46:53;;;;;;;;;24.80;20.20;;;;;4.96;77.05;103457.81;4976182;28;45387;-50
2022/01/13 01:49:20;;;;;;;;;24.50;21.50;;;;;4.92;78.23;103464.47;4958096;28;45749;-49
2022/01/13 01:51:47;;;;;;;;;22.40;20.00;;;;;4.82;78.14;103452.47;4975280;28;45472;-49
2022/01/13 01:54:13;;;;;;;;;30.80;21.20;;;;;4.86;77.57;103460.31;4976111;28;45382;-46
2022/01/13 01:56:38;;;;;;;;;22.25;16.00;;;;;4.85;77.70;103464.00;4957870;28;45384;-48
2022/01/13 01:59:13;;;;;;;;;28.00;24.75;;;;;4.64;79.00;103451.91;4973626;28;46455;-50
2022/01/13 02:01:41;;;;;;;;;29.00;25.20;;;;;4.67;78.45;103463.44;4976170;28;45423;-48
2022/01/13 02:04:07;;;;;;;;;27.20;22.20;;;;;4.78;78.02;103473.59;4975536;28;45337;-50
2022/01/13 02:06:33;;;;;;;;;31.60;23.80;;;;;4.72;78.28;103469.44;4974836;28;45261;-48
2022/01/13 02:08:58;;;;;;;;;25.75;21.75;;;;;4.71;77.82;103454.06;4975660;28;45474;-48
2022/01/13 02:11:25;;;;;;;;;25.00;19.00;;;;;4.88;77.58;103473.81;4975476;28;45391;-47
2022/01/13 02:13:54;;;;;;;;;23.60;20.00;;;;;4.82;78.16;103466.09;4969657;28;45924;-48
2022/01/13 02:16:43;;;;;;;;;22.40;19.60;;;;;4.92;77.16;103479.91;4996382;28;45438;-48
2022/01/13 02:19:08;;;;;;;;;20.00;18.20;;;;;4.80;77.52;103489.81;4996418;28;45342;-48
2022/01/13 02:21:34;;;;;;;;;25.75;15.75;;;;;4.75;78.24;103485.56;4977582;28;45285;-48
2022/01/13 02:23:59;;;;;;;;;26.50;19.00;;;;;4.76;78.35;103486.44;4995620;28;45358;-47
2022/01/13 02:26:25;;;;;;;;;17.50;13.00;;;;;4.48;77.93;103444.78;4995169;28;45289;-48
2022/01/13 02:28:53;;;;;;;;;25.25;20.25;;;;;4.62;78.29;103490.09;4993395;28;45731;-47
2022/01/13 02:31:19;;;;;;;;;21.60;18.80;;;;;4.57;77.82;103492.25;4993292;28;45471;-48
2022/01/13 02:33:45;;;;;;;;;24.75;18.75;;;;;4.36;78.70;103456.53;4986154;28;45507;-47
2022/01/13 02:36:11;;;;;;;;;19.50;16.00;;;;;4.51;77.79;103487.22;4975436;28;45476;-48
2022/01/13 02:38:36;;;;;;;;;14.60;13.60;;;;;4.47;78.36;103484.72;4974763;28;46543;-50
2022/01/13 02:41:03;;;;;;;;;22.75;20.00;;;;;4.55;77.70;103477.88;4958237;28;45593;-51
2022/01/13 02:43:33;;;;;;;;;17.20;15.80;;;;;4.56;77.69;103476.91;4974693;28;45858;-52
2022/01/13 02:46:18;;;;;;;;;19.60;15.80;;;;;4.60;77.26;103481.19;4975342;28;45620;-51
2022/01/13 02:48:44;;;;;;;;;26.80;18.60;;;;;4.55;77.69;103472.44;4975219;28;45696;-50
2022/01/13 02:51:10;;;;;;;;;21.75;17.50;;;;;4.47;77.79;103465.69;4975186;28;45773;-50
2022/01/13 02:53:35;;;;;;;;;9.75;4.50;;;;;4.44;78.51;103465.88;4959055;28;45867;-47
2022/01/13 02:56:05;;;;;;;;;15.50;13.50;;;;;4.54;77.52;103473.44;4979382;28;45233;-52
2022/01/13 02:58:34;;;;;;;;;18.20;14.60;;;;;4.60;77.73;103471.16;4976288;28;48388;-49
2022/01/13 03:00:59;;;;;;;;;14.00;12.80;;;;;4.64;77.33;103469.09;4977941;28;45459;-50
2022/01/13 03:03:28;;;;;;;;;16.00;13.25;;;;;4.62;77.13;103465.59;4978129;28;45413;-49
2022/01/13 03:05:54;;;;;;;;;15.20;11.80;;;;;4.53;76.83;103474.41;4977365;28;45246;-49
2022/01/13 03:08:19;;;;;;;;;22.50;17.25;;;;;4.50;76.84;103469.16;4977969;28;45474;-49
2022/01/13 03:10:45;;;;;;;;;16.00;13.75;;;;;4.52;77.55;103473.53;4977975;28;45332;-49
2022/01/13 03:13:10;;;;;;;;;20.25;18.00;;;;;4.59;76.51;103468.56;4960514;28;45472;-50
2022/01/13 03:15:36;;;;;;;;;19.25;13.25;;;;;4.55;76.74;103467.00;4978159;28;45806;-50
2022/01/13 03:18:01;;;;;;;;;21.75;15.75;;;;;4.57;76.26;103467.78;4977859;28;47482;-48
2022/01/13 03:20:27;;;;;;;;;18.75;18.50;;;;;4.16;76.77;103418.81;4944302;28;45352;-49
2022/01/13 03:22:52;;;;;;;;;14.75;14.75;;;;;4.31;77.42;103465.84;4944298;28;45537;-49
2022/01/13 03:25:22;;;;;;;;;17.25;15.00;;;;;4.14;77.61;103442.53;4978668;28;45476;-48
2022/01/13 03:27:53;;;;;;;;;16.60;14.20;;;;;4.02;77.92;103421.59;4960288;28;45561;-48
2022/01/13 03:30:19;;;;;;;;;16.60;12.20;;;;;4.30;77.58;103453.22;4977828;28;45449;-48
2022/01/13 03:32:44;;;;;;;;;18.50;16.75;;;;;4.31;77.71;103457.69;4977735;28;45410;-53
2022/01/13 03:35:10;;;;;;;;;14.25;12.25;;;;;4.12;76.71;103427.28;4979159;28;45429;-51
2022/01/13 03:37:35;;;;;;;;;14.00;14.00;;;;;4.23;76.43;103460.06;4977587;28;45432;-49
2022/01/13 03:40:01;;;;;;;;;11.50;11.50;;;;;4.15;76.81;103460.56;4977783;28;45399;-48
2022/01/13 03:42:27;;;;;;;;;16.50;14.00;;;;;4.19;77.07;103467.56;4977857;28;45174;-47
2022/01/13 03:44:54;;;;;;;;;16.75;13.25;;;;;4.26;76.78;103456.28;4977491;28;45618;-48
2022/01/13 03:47:20;;;;;;;;;16.60;13.00;;;;;4.17;76.58;103441.44;4976365;28;45831;-50
2022/01/13 03:49:45;;;;;;;;;22.25;14.75;;;;;4.16;77.42;103448.72;4977248;28;45418;-48
2022/01/13 03:52:23;;;;;;;;;15.25;11.50;;;;;4.14;77.96;103467.00;4977937;28;45480;-48
2022/01/13 03:55:26;;;;;;;;;17.20;14.80;;;;;4.11;77.10;103459.00;4977936;28;45425;-49
2022/01/13 03:58:11;;;;;;;;;17.20;13.20;;;;;4.14;77.52;103461.53;4979457;28;46164;-51
2022/01/13 04:00:53;;;;;;;;;15.80;15.80;;;;;4.22;77.20;103462.88;4978065;28;45415;-50
2022/01/13 04:03:18;;;;;;;;;17.80;13.80;;;;;4.16;76.63;103458.72;4978003;28;45276;-52
2022/01/13 04:06:22;;;;;;;;;18.50;15.25;;;;;4.29;77.35;103462.38;4976772;28;45367;-49
2022/01/13 04:08:48;;;;;;;;;18.00;12.60;;;;;4.25;76.64;103463.53;4901644;28;46131;-47
2022/01/13 04:11:16;;;;;;;;;15.20;10.60;;;;;4.23;77.12;103456.47;4953748;28;45313;-48
2022/01/13 04:13:56;;;;;;;;;15.00;13.40;;;;;4.19;77.17;103459.41;4957872;28;45443;-49
2022/01/13 04:16:33;;;;;;;;;17.40;12.40;;;;;4.13;75.93;103456.19;4956760;28;45371;-49
2022/01/13 04:19:04;;;;;;;;;19.40;14.60;;;;;3.96;76.76;103428.31;4957439;28;46695;-47
2022/01/13 04:21:30;;;;;;;;;11.00;11.00;;;;;4.24;76.31;103463.63;4957768;28;45436;-46
2022/01/13 04:23:57;;;;;;;;;16.80;16.40;;;;;4.22;77.22;103462.88;4957728;28;45332;-48
2022/01/13 04:26:28;;;;;;;;;16.20;14.60;;;;;4.27;76.72;103467.03;4958169;28;45549;-52
2022/01/13 04:29:16;;;;;;;;;18.80;14.20;;;;;4.31;76.57;103464.97;4957296;28;46450;-49
2022/01/13 04:31:43;;;;;;;;;13.20;12.00;;;;;4.05;76.07;103427.69;4943175;28;45219;-51
2022/01/13 04:34:09;;;;;;;;;13.00;10.60;;;;;4.31;77.05;103454.97;4966225;28;45377;-48
2022/01/13 04:36:35;;;;;;;;;20.25;13.25;;;;;4.06;75.90;103409.56;4976416;28;45522;-50
2022/01/13 04:39:00;;;;;;;;;17.25;12.50;;;;;4.20;75.82;103441.22;4976701;28;45782;-48
2022/01/13 04:41:32;;;;;;;;;17.00;14.00;;;;;4.16;75.71;103462.31;4975067;28;45415;-47
2022/01/13 04:43:58;;;;;;;;;16.60;13.00;;;;;3.99;76.73;103438.13;4976999;28;45256;-46
2022/01/13 04:46:24;;;;;;;;;13.00;10.50;;;;;3.87;75.95;103420.75;4975329;28;45667;-46
2022/01/13 04:48:49;;;;;;;;;13.25;11.75;;;;;4.10;76.09;103456.44;4976535;28;45950;-51
2022/01/13 04:51:15;;;;;;;;;14.00;14.00;;;;;4.12;75.54;103458.06;4977017;28;45889;-49
2022/01/13 04:53:40;;;;;;;;;20.25;13.75;;;;;4.13;75.67;103462.53;4976882;28;45417;-48
2022/01/13 04:56:11;;;;;;;;;19.25;13.75;;;;;4.13;76.05;103453.47;4977007;28;45667;-54
2022/01/13 04:58:37;;;;;;;;;13.40;13.20;;;;;4.14;75.90;103461.53;4958754;28;46534;-52
2022/01/13 05:01:03;;;;;;;;;12.00;12.00;;;;;4.13;76.12;103461.63;4975025;28;45309;-48
2022/01/13 05:03:29;;;;;;;;;13.60;12.00;;;;;4.15;76.33;103466.00;4958589;28;45446;-48
2022/01/13 05:05:54;;;;;;;;;22.00;18.50;;;;;4.15;76.42;103471.44;4976851;28;45312;-50
2022/01/13 05:08:20;;;;;;;;;14.75;11.50;;;;;4.16;75.66;103461.47;4974676;28;46336;-48
2022/01/13 05:10:45;;;;;;;;;19.00;15.00;;;;;4.11;76.94;103467.16;4958366;28;45262;-48
2022/01/13 05:13:12;;;;;;;;;15.75;12.00;;;;;4.15;75.94;103471.44;4976619;28;45589;-49
2022/01/13 05:15:39;;;;;;;;;19.20;18.00;;;;;4.18;76.66;103473.94;4976435;28;45441;-49
2022/01/13 05:20:47;;;;;;;;;12.00;12.00;;;;;4.23;75.75;103456.47;4975838;28;45410;-47
2022/01/13 05:23:12;;;;;;;;;17.60;15.00;;;;;4.26;75.83;103453.56;4958963;28;45441;-47
2022/01/13 05:25:39;;;;;;;;;11.75;10.50;;;;;4.25;75.90;103462.66;4975379;28;45617;-50
2022/01/13 05:28:04;;;;;;;;;15.20;12.60;;;;;4.22;75.92;103460.16;4978973;28;45547;-48
2022/01/13 05:30:30;;;;;;;;;17.25;14.25;;;;;4.16;75.09;103467.75;4959741;28;45334;-47
2022/01/13 05:32:56;;;;;;;;;15.75;15.75;;;;;4.18;75.43;103471.22;4976247;28;45316;-47
2022/01/13 05:35:22;;;;;;;;;12.40;10.60;;;;;4.11;75.25;103466.31;4973543;28;45479;-48
2022/01/13 05:37:48;;;;;;;;;15.00;13.60;;;;;4.14;75.51;103455.22;4957968;28;45302;-48
2022/01/13 05:40:13;;;;;;;;;12.00;12.00;;;;;4.23;74.82;103451.03;4977104;28;45336;-52
2022/01/13 05:42:39;;;;;;;;;17.25;13.00;;;;;4.22;75.68;103460.16;4978402;28;45667;-49
2022/01/13 05:45:13;;;;;;;;;16.50;15.00;;;;;4.26;74.86;103456.28;4975757;28;45328;-52
2022/01/13 05:47:40;;;;;;;;;14.80;13.40;;;;;3.92;75.42;103411.34;4975578;28;46126;-47
2022/01/13 05:50:06;;;;;;;;;11.40;11.40;;;;;4.11;75.91;103452.72;4973998;28;45523;-51
2022/01/13 05:52:32;;;;;;;;;18.60;13.20;;;;;4.06;75.46;103450.31;4975501;28;45478;-47
2022/01/13 05:54:57;;;;;;;;;13.50;13.50;;;;;4.08;75.60;103445.66;4975822;28;45541;-50
2022/01/13 05:57:23;;;;;;;;;16.50;14.25;;;;;4.13;75.85;103453.47;4975661;28;46899;-50
2022/01/13 05:59:48;;;;;;;;;18.00;14.50;;;;;4.13;75.87;103457.09;4974982;28;45296;-46
2022/01/13 06:02:13;;;;;;;;;13.50;11.75;;;;;4.14;75.46;103456.09;4976126;28;45435;-48
2022/01/13 06:04:39;;;;;;;;;11.25;11.25;;;;;4.16;75.64;103437.84;4974523;28;45457;-49
2022/01/13 06:07:05;;;;;;;;;15.50;13.00;;;;;4.22;75.09;103446.56;4960668;28;46440;-49
2022/01/13 06:09:30;;;;;;;;;13.50;12.50;;;;;4.13;75.30;103429.91;4970283;28;45377;-48
2022/01/13 06:11:59;;;;;;;;;17.25;14.50;;;;;4.25;75.09;103451.78;4975553;28;45469;-50
2022/01/13 06:14:25;;;;;;;;;11.20;11.00;;;;;4.23;75.81;103449.19;4975784;28;45685;-47
2022/01/13 06:16:50;;;;;;;;;21.50;16.50;;;;;4.24;75.41;103447.31;4975657;28;45436;-47
2022/01/13 06:19:16;;;;;;;;;12.00;10.75;;;;;4.33;75.13;103454.88;4975669;28;45329;-49
2022/01/13 06:21:41;;;;;;;;;15.25;12.00;;;;;4.26;74.99;103438.09;4975750;28;45392;-48
2022/01/13 06:24:07;;;;;;;;;19.00;13.25;;;;;4.34;74.56;103453.91;4974371;28;45642;-48
2022/01/13 06:26:32;;;;;;;;;14.00;14.00;;;;;4.30;74.62;103460.50;4975431;28;46038;-47
2022/01/13 06:28:58;;;;;;;;;20.50;12.00;;;;;3.99;75.58;103424.53;4977203;28;45437;-50
2022/01/13 06:31:23;;;;;;;;;14.00;14.00;;;;;4.14;75.45;103460.66;4978446;28;45477;-50
2022/01/13 06:33:49;;;;;;;;;21.75;16.25;;;;;4.09;75.50;103458.25;4978891;28;45562;-49
2022/01/13 06:36:14;;;;;;;;;14.00;11.50;;;;;4.15;75.58;103455.13;4961596;28;45357;-48
2022/01/13 06:38:41;;;;;;;;;18.50;17.50;;;;;4.11;75.62;103459.00;4978791;28;45446;-49
2022/01/13 06:41:07;;;;;;;;;11.80;11.20;;;;;4.12;75.31;103460.78;4978539;28;45311;-50
2022/01/13 06:43:33;;;;;;;;;12.75;10.00;;;;;4.02;75.23;103460.53;4978843;28;45456;-51
2022/01/13 06:45:59;;;;;;;;;15.80;13.00;;;;;4.10;75.66;103459.13;4978288;28;45365;-48
2022/01/13 06:48:25;;;;;;;;;13.00;11.75;;;;;4.13;75.73;103459.81;4978703;28;45310;-48
2022/01/13 06:50:50;;;;;;;;;15.25;12.25;;;;;4.20;75.45;103452.09;4978959;28;45336;-47
2022/01/13 06:53:16;;;;;;;;;17.00;13.75;;;;;3.90;74.80;103421.41;4978975;28;45625;-48
2022/01/13 06:55:41;;;;;;;;;19.50;14.25;;;;;4.09;75.33;103457.38;4977076;28;45684;-47
2022/01/13 06:58:07;;;;;;;;;11.25;11.25;;;;;3.49;75.23;103362.56;4977616;28;45400;-48
2022/01/13 07:00:33;;;;;;;;;15.75;13.25;;;;;4.00;75.47;103450.72;4978459;28;45363;-50
2022/01/13 07:03:01;;;;;;;;;14.80;14.80;;;;;4.15;75.15;103463.28;4944914;28;45613;-49
2022/01/13 07:05:27;;;;;;;;;15.80;15.40;;;;;4.16;75.81;103461.47;4960113;28;47608;-50
2022/01/13 07:07:52;;;;;;;;;19.75;13.50;;;;;4.22;75.38;103468.31;4932304;28;45369;-50
2022/01/13 07:10:18;;;;;;;;;14.50;11.50;;;;;4.02;74.88;103421.59;4996632;28;45181;-50
2022/01/13 07:12:43;;;;;;;;;16.25;15.25;;;;;4.20;75.35;103465.69;4998126;28;45884;-51
2022/01/13 07:15:10;;;;;;;;;17.75;17.25;;;;;4.25;74.90;103458.09;4979776;28;45405;-49
2022/01/13 07:17:35;;;;;;;;;20.60;15.00;;;;;4.16;75.57;103462.31;4997664;28;45295;-48
2022/01/13 07:20:01;;;;;;;;;16.25;13.25;;;;;4.22;75.18;103466.47;4997709;28;45426;-51
2022/01/13 07:22:26;;;;;;;;;23.25;19.00;;;;;4.09;75.56;103462.81;4999943;28;44917;-49
2022/01/13 07:24:52;;;;;;;;;22.75;15.50;;;;;4.05;75.74;103462.13;5001108;28;45561;-52
2022/01/13 07:27:17;;;;;;;;;19.00;17.00;;;;;4.12;75.65;103471.66;4996602;28;45372;-50
2022/01/13 07:29:43;;;;;;;;;14.75;14.75;;;;;4.08;75.68;103461.97;4979821;28;45815;-50
2022/01/13 07:32:12;;;;;;;;;16.40;14.40;;;;;4.13;75.11;103467.06;4997761;28;45394;-53
2022/01/13 07:34:37;;;;;;;;;16.40;15.80;;;;;4.11;75.80;103459.00;4984592;28;45435;-49
2022/01/13 07:37:03;;;;;;;;;17.50;15.25;;;;;4.19;74.64;103483.88;4960552;28;45341;-49
2022/01/13 07:39:29;;;;;;;;;18.75;15.50;;;;;4.16;75.28;103484.06;4977277;28;45376;-49
2022/01/13 07:41:55;;;;;;;;;19.25;15.50;;;;;3.96;75.81;103446.44;4960399;28;45544;-50
2022/01/13 07:44:21;;;;;;;;;17.75;16.00;;;;;4.16;75.57;103472.31;4959849;28;47089;-49
2022/01/13 07:46:47;;;;;;;;;20.00;18.20;;;;;4.00;75.37;103427.13;4975872;28;45453;-50
2022/01/13 07:49:12;;;;;;;;;31.00;23.00;;;;;4.24;75.49;103461.81;4976216;28;45352;-49
2022/01/13 07:51:38;;;;;;;;;19.25;12.75;;;;;4.25;75.30;103462.66;4977839;28;45616;-53
2022/01/13 07:54:04;;;;;;;;;20.50;16.25;;;;;4.26;75.07;103467.16;4977188;28;45411;-49
2022/01/13 07:56:29;;;;;;;;;18.25;15.25;;;;;4.28;75.84;103462.47;4977130;28;45490;-47
2022/01/13 07:58:55;;;;;;;;;14.00;12.00;;;;;3.83;74.92;103376.63;4977149;28;45309;-49
2022/01/13 08:01:21;;;;;;;;;21.80;17.60;;;;;4.20;75.46;103469.28;4943598;28;45530;-46
2022/01/13 08:03:46;;;;;;;;;18.00;14.00;;;;;4.23;75.00;103461.91;4977093;28;45573;-52
2022/01/13 08:06:12;;;;;;;;;21.50;17.75;;;;;4.26;75.36;103453.56;4976831;28;45385;-48
2022/01/13 08:08:38;;;;;;;;;25.75;19.50;;;;;4.32;75.34;103450.41;4978361;28;46054;-47
2022/01/13 08:11:04;;;;;;;;;20.50;19.50;;;;;4.40;74.86;103464.38;4994013;28;45382;-50
2022/01/13 08:13:30;;;;;;;;;22.60;16.00;;;;;4.35;74.90;103458.34;4995201;28;45638;-50
2022/01/13 08:15:58;;;;;;;;;17.50;15.50;;;;;4.31;75.68;103462.25;4996453;28;45404;-48
2022/01/13 08:21:07;;;;;;;;;15.20;15.20;;;;;4.30;74.53;103455.97;4996524;28;45435;-50
2022/01/13 08:23:33;;;;;;;;;23.75;19.25;;;;;4.33;74.95;103461.16;4978322;28;47182;-49
2022/01/13 08:25:59;;;;;;;;;27.75;20.75;;;;;4.36;75.12;103461.97;4995208;28;45465;-52
2022/01/13 08:28:27;;;;;;;;;22.00;21.50;;;;;4.42;74.69;103459.69;4978709;28;45477;-52
2022/01/13 08:30:53;;;;;;;;;22.40;17.60;;;;;4.36;74.39;103459.25;4996986;28;45649;-55
2022/01/13 08:33:22;;;;;;;;;16.60;15.80;;;;;4.30;75.14;103450.53;4996017;28;46685;-53
2022/01/13 08:35:49;;;;;;;;;18.00;18.00;;;;;4.36;75.29;103445.66;4976373;28;45432;-51
2022/01/13 08:38:18;;;;;;;;;23.20;20.60;;;;;4.44;74.80;103454.16;4977340;28;45432;-48
2022/01/13 08:40:45;;;;;;;;;21.60;17.80;;;;;4.50;74.18;103458.28;4976414;28;45372;-51
2022/01/13 08:43:11;;;;;;;;;25.40;18.40;;;;;4.55;74.29;103454.28;4959096;28;45825;-52
2022/01/13 08:45:36;;;;;;;;;27.75;19.50;;;;;4.41;73.71;103422.59;4974924;28;45427;-49
2022/01/13 08:48:02;;;;;;;;;21.00;17.75;;;;;4.61;74.69;103456.56;4976610;28;45534;-49
2022/01/13 08:50:27;;;;;;;;;22.25;20.50;;;;;4.41;74.05;103416.25;4976078;28;45576;-49
2022/01/13 08:52:53;;;;;;;;;21.25;19.50;;;;;4.58;73.92;103453.19;4958721;28;46522;-48
2022/01/13 08:55:18;;;;;;;;;20.25;16.00;;;;;4.41;74.41;103440.75;4976238;28;45249;-50
2022/01/13 08:57:44;;;;;;;;;19.75;17.00;;;;;4.51;73.58;103455.47;4958402;28;45475;-49
2022/01/13 09:00:10;;;;;;;;;20.25;20.25;;;;;4.51;74.41;103451.88;4976453;28;45674;-47
2022/01/13 09:02:36;;;;;;;;;20.60;16.20;;;;;4.55;74.25;103454.28;4942597;28;47446;-48
2022/01/13 09:05:02;;;;;;;;;25.25;22.50;;;;;4.37;74.22;103421.03;4958646;28;45455;-49
2022/01/13 09:07:28;;;;;;;;;22.20;21.00;;;;;4.66;73.52;103455.38;4959091;28;45345;-50
2022/01/13 09:09:54;;;;;;;;;22.60;19.80;;;;;4.50;73.72;103439.25;4959996;28;45678;-53
2022/01/13 09:12:20;;;;;;;;;23.50;23.25;;;;;4.72;73.74;103474.00;4977510;28;45799;-49
2022/01/13 09:14:45;;;;;;;;;20.75;20.00;;;;;4.70;73.84;103468.66;4958420;28;45207;-50
2022/01/13 09:17:19;;;;;;;;;26.25;23.25;;;;;4.79;74.25;103480.78;4976270;28;45317;-51
2022/01/13 09:19:45;;;;;;;;;27.80;24.40;;;;;4.56;73.58;103449.72;4958279;28;45477;-49
2022/01/13 09:22:11;;;;;;;;;23.20;18.60;;;;;4.60;73.97;103481.19;4958109;28;46414;-51
2022/01/13 09:24:36;;;;;;;;;29.75;22.50;;;;;4.60;73.62;103473.88;4958774;28;45513;-48
2022/01/13 09:27:03;;;;;;;;;32.25;27.75;;;;;4.47;73.46;103454.81;4958396;28;45513;-49
2022/01/13 09:29:29;;;;;;;;;20.00;19.60;;;;;4.66;74.29;103493.47;4958414;28;45271;-50
2022/01/13 09:31:54;;;;;;;;;28.25;24.75;;;;;4.62;73.42;103495.53;4975766;28;46114;-49
2022/01/13 09:34:20;;;;;;;;;31.25;21.50;;;;;4.60;74.11;103486.63;4957883;28;45318;-47
2022/01/13 09:36:45;;;;;;;;;26.50;24.25;;;;;4.70;73.22;103489.59;4975799;28;45508;-52
2022/01/13 09:39:11;;;;;;;;;28.25;22.75;;;;;4.62;74.36;103495.53;4975794;28;45556;-50
2022/01/13 09:41:40;;;;;;;;;27.50;23.25;;;;;4.64;74.04;103499.00;4975564;28;45322;-51
2022/01/13 09:44:06;;;;;;;;;34.40;29.40;;;;;4.72;73.91;103502.09;4973936;28;45478;-51
2022/01/13 09:46:33;;;;;;;;;31.50;20.50;;;;;4.72;73.64;103504.81;4975681;28;45213;-50
2022/01/13 09:49:02;;;;;;;;;31.00;23.80;;;;;4.48;74.03;103466.53;4958397;28;45298;-50
2022/01/13 09:51:28;;;;;;;;;35.40;25.60;;;;;4.77;73.44;103506.34;4975337;28;45581;-48
2022/01/13 09:53:53;;;;;;;;;31.00;23.50;;;;;4.72;73.15;103502.09;4975787;28;45420;-51
2022/01/13 09:56:19;;;;;;;;;41.75;29.50;;;;;4.65;73.41;103502.63;4943495;28;45550;-49
2022/01/13 09:58:45;;;;;;;;;25.75;22.50;;;;;4.60;73.25;103484.75;4975273;28;45424;-47
2022/01/13 10:01:11;;;;;;;;;34.50;30.25;;;;;4.70;73.65;103506.75;4957905;28;45525;-49
2022/01/13 10:03:37;;;;;;;;;31.20;23.20;;;;;4.75;74.03;103507.31;4976063;28;45520;-50
2022/01/13 10:06:09;;;;;;;;;29.25;24.25;;;;;4.62;73.08;103514.59;4975828;28;45379;-48
2022/01/13 10:08:56;;;;;;;;;33.00;27.60;;;;;4.62;73.98;103514.59;4958849;28;45373;-58
2022/01/13 10:11:37;;;;;;;;;28.40;25.00;;;;;4.69;74.07;103510.47;4975553;28;45768;-53
2022/01/13 10:16:55;;;;;;;;;31.60;29.20;;;;;4.77;73.71;103509.94;4975750;28;45427;-55
2022/01/13 10:19:37;;;;;;;;;22.60;21.40;;;;;4.80;73.87;103509.72;4961350;28;45990;-55
2022/01/13 10:22:10;;;;;;;;;32.00;26.60;;;;;4.79;72.79;103498.97;4953109;28;45981;-52
2022/01/13 10:24:44;;;;;;;;;31.20;23.20;;;;;4.91;72.18;103511.69;4970683;28;45799;-52
2022/01/13 10:27:20;;;;;;;;;33.20;24.00;;;;;4.68;72.33;103508.72;4971304;28;45404;-53
2022/01/13 10:29:56;;;;;;;;;32.00;28.60;;;;;4.67;72.57;103506.97;4970088;28;45601;-55
2022/01/13 10:32:38;;;;;;;;;39.40;30.20;;;;;4.50;72.93;103485.50;4969715;28;45797;-50
2022/01/13 10:35:06;;;;;;;;;36.40;27.60;;;;;4.67;72.51;103508.81;4953697;28;46054;-52
2022/01/13 10:37:38;;;;;;;;;25.20;23.60;;;;;4.70;72.92;103498.59;4969946;28;45574;-55
2022/01/13 10:40:10;;;;;;;;;33.80;26.80;;;;;4.77;72.33;103504.50;4970903;28;45399;-51
2022/01/13 10:45:21;;;;;;;;;32.40;27.40;;;;;4.79;72.94;103501.69;4969761;28;45462;-56
2022/01/13 10:48:02;;;;;;;;;33.80;24.60;;;;;4.18;73.03;103402.41;4969855;28;45435;-51
2022/01/13 10:50:31;;;;;;;;;36.80;30.40;;;;;4.80;73.19;103497.97;4970172;28;45891;-55
2022/01/13 10:53:02;;;;;;;;;33.60;28.60;;;;;4.48;72.85;103452.94;4971151;28;46212;-56
2022/01/13 10:55:29;;;;;;;;;33.00;27.20;;;;;4.80;72.82;103500.72;4919651;28;46150;-51
2022/01/13 10:57:54;;;;;;;;;28.80;26.20;;;;;4.77;72.36;103485.47;4964149;28;45586;-59
2022/01/13 11:00:21;;;;;;;;;33.00;29.75;;;;;4.89;72.28;103500.06;4953742;28;45513;-53
2022/01/13 11:03:08;;;;;;;;;39.60;31.80;;;;;4.56;72.31;103433.38;4951413;28;45518;-51
2022/01/13 11:05:37;;;;;;;;;41.40;32.40;;;;;4.52;71.96;103418.25;4951057;28;45462;-50
2022/01/13 11:08:06;;;;;;;;;42.20;36.00;;;;;4.94;72.77;103487.00;4941412;28;45556;-55
2022/01/13 11:10:31;;;;;;;;;38.60;33.80;;;;;4.99;72.47;103481.22;4971008;28;46071;-52
2022/01/13 11:12:59;;;;;;;;;42.50;33.75;;;;;4.92;71.49;103469.03;4970742;28;46744;-55
2022/01/13 11:15:25;;;;;;;;;34.60;31.80;;;;;5.02;72.22;103479.16;4973089;28;45390;-53
2022/01/13 11:17:55;;;;;;;;;36.80;32.00;;;;;5.08;72.28;103474.28;4974189;28;45377;-55
2022/01/13 11:20:22;;;;;;;;;37.20;34.20;;;;;5.08;71.20;103474.28;4972852;28;45524;-51
2022/01/13 11:22:51;;;;;;;;;36.40;30.20;;;;;5.14;71.46;103477.41;4955674;28;46991;-49
2022/01/13 11:25:19;;;;;;;;;35.00;32.00;;;;;5.18;71.50;103475.34;4956225;28;45478;-52
2022/01/13 11:27:45;;;;;;;;;43.00;34.20;;;;;5.18;71.47;103453.56;4955846;28;45436;-57
2022/01/13 11:30:13;;;;;;;;;39.75;34.75;;;;;5.36;70.40;103473.19;4974053;28;45873;-52
2022/01/13 11:32:42;;;;;;;;;32.80;28.80;;;;;5.11;70.44;103404.13;4972806;28;46038;-59
2022/01/13 11:35:12;;;;;;;;;38.60;32.60;;;;;5.61;69.92;103459.63;4972117;28;45543;-55
2022/01/13 11:37:39;;;;;;;;;35.80;33.20;;;;;5.55;70.38;103461.81;4972404;28;45461;-51
2022/01/13 11:40:08;;;;;;;;;37.40;31.80;;;;;5.51;69.80;103459.44;4973450;28;45395;-56
2022/01/13 11:42:46;;;;;;;;;37.60;32.20;;;;;5.19;70.26;103403.59;4955780;28;45489;-52
2022/01/13 11:45:16;;;;;;;;;42.20;35.40;;;;;5.48;70.01;103454.19;4954955;28;45556;-58
2022/01/13 11:47:41;;;;;;;;;38.00;33.00;;;;;5.41;70.44;103438.28;4973424;28;45494;-50
2022/01/13 11:50:16;;;;;;;;;52.75;36.25;;;;;5.44;70.01;103434.47;4972181;28;45589;-55